createdAt,value
2023-05-21T00:00:19.058Z,80.53
2023-05-21T00:03:47.422Z,79.84
2023-05-21T00:06:58.700Z,81.03
2023-05-21T00:10:06.873Z,80.83
2023-05-21T00:13:15.088Z,80.69
2023-05-21T00:16:23.640Z,81.37
2023-05-21T00:23:29.678Z,82.29
2023-05-21T00:26:37.915Z,82.26
2023-05-21T00:29:46.337Z,82.77
2023-05-21T00:32:54.720Z,82.50
2023-05-21T00:36:03.285Z,82.28
2023-05-21T00:39:11.742Z,83.74
2023-05-21T00:42:20.129Z,83.48
2023-05-21T00:45:33.298Z,83.16
2023-05-21T00:48:38.640Z,83.93
2023-05-21T00:51:46.737Z,83.29
2023-05-21T00:54:54.963Z,84.04
2023-05-21T00:58:03.331Z,83.23
2023-05-21T01:01:17.434Z,84.22
2023-05-21T01:04:25.803Z,84.59
2023-05-21T01:07:34.230Z,84.32
2023-05-21T01:10:47.262Z,84.40
2023-05-21T01:13:55.429Z,83.54
2023-05-21T01:17:03.713Z,83.90
2023-05-21T01:20:11.967Z,83.87
2023-05-21T01:27:16.624Z,83.97
2023-05-21T01:30:24.885Z,84.68
2023-05-21T01:33:22.399Z,85.02
2023-05-21T01:40:02.877Z,85.32
2023-05-21T01:43:11.557Z,85.57
2023-05-21T01:46:25.753Z,85.73
2023-05-21T01:49:33.970Z,85.91
2023-05-21T01:52:42.239Z,85.94
2023-05-21T01:55:50.419Z,85.71
2023-05-21T01:58:58.632Z,85.70
2023-05-21T02:02:07.211Z,85.61
2023-05-21T02:05:15.426Z,84.98
2023-05-21T02:08:23.627Z,84.75
2023-05-21T02:11:32.047Z,85.36
2023-05-21T02:14:40.558Z,84.72
2023-05-21T02:17:48.880Z,85.07
2023-05-21T02:24:29.258Z,85.43
2023-05-21T02:27:37.483Z,85.24
2023-05-21T02:30:45.847Z,85.20
2023-05-21T02:33:54.577Z,85.54
2023-05-21T02:37:02.892Z,85.52
2023-05-21T02:40:11.465Z,85.96
2023-05-21T02:43:20.409Z,85.80
2023-05-21T02:46:28.981Z,85.66
2023-05-21T02:49:33.818Z,86.16
2023-05-21T02:52:03.255Z,86.17
2023-05-21T02:54:31.951Z,86.36
2023-05-21T02:57:00.621Z,86.74
2023-05-21T02:59:29.314Z,86.80
2023-05-21T03:01:57.958Z,86.82
2023-05-21T03:04:28.632Z,87.21
2023-05-21T03:06:57.434Z,87.27
2023-05-21T03:09:25.805Z,86.57
2023-05-21T03:11:54.633Z,86.86
2023-05-21T03:14:25.019Z,86.79
2023-05-21T03:16:53.349Z,86.80
2023-05-21T03:20:02.128Z,86.50
2023-05-21T03:26:42.823Z,85.66
2023-05-21T03:29:51.243Z,85.34
2023-05-21T03:32:59.398Z,85.30
2023-05-21T03:36:07.984Z,84.90
2023-05-21T03:39:17.780Z,84.59
2023-05-21T03:42:26.194Z,84.41
2023-05-21T03:45:12.652Z,83.92
2023-05-21T03:48:44.184Z,83.69
2023-05-21T03:51:53.977Z,83.30
2023-05-21T03:54:22.758Z,82.97
2023-05-21T03:57:32.830Z,82.95
2023-05-21T04:00:01.504Z,82.77
2023-05-21T04:02:32.471Z,82.52
2023-05-21T04:05:40.967Z,82.46
2023-05-21T04:08:55.259Z,82.35
2023-05-21T04:11:23.661Z,82.29
2023-05-21T04:13:52.285Z,81.91
2023-05-21T04:17:00.536Z,81.86
2023-05-21T04:20:08.755Z,81.28
2023-05-21T04:23:17.621Z,80.57
2023-05-21T04:26:31.390Z,79.37
2023-05-21T04:29:39.774Z,79.02
2023-05-21T04:32:48.492Z,78.22
2023-05-21T04:35:56.955Z,77.22
2023-05-21T04:39:05.582Z,75.47
2023-05-21T04:41:34.129Z,74.89
2023-05-21T04:44:02.628Z,74.06
2023-05-21T04:47:11.645Z,73.89
2023-05-21T04:49:40.677Z,72.56
2023-05-21T04:52:08.954Z,71.39
2023-05-21T04:54:39.285Z,71.30
2023-05-21T04:57:47.570Z,70.67
2023-05-21T05:00:56.011Z,70.67
2023-05-21T05:03:24.692Z,68.68
2023-05-21T05:05:53.971Z,68.82
2023-05-21T05:08:22.701Z,67.53
2023-05-21T05:11:27.011Z,66.65
2023-05-21T05:13:55.947Z,65.89
2023-05-21T05:16:28.221Z,66.10
2023-05-21T05:18:58.147Z,64.97
2023-05-21T05:21:27.760Z,64.75
2023-05-21T05:23:56.497Z,64.02
2023-05-21T05:26:28.466Z,62.95
2023-05-21T05:28:57.352Z,63.53
2023-05-21T05:31:25.985Z,62.75
2023-05-21T05:34:34.614Z,61.55
2023-05-21T05:37:43.204Z,61.08
2023-05-21T05:40:51.779Z,60.46
2023-05-21T05:44:00.160Z,60.11
2023-05-21T05:47:10.673Z,59.81
2023-05-21T05:50:19.772Z,59.02
2023-05-21T05:53:27.927Z,57.28
2023-05-21T05:59:31.370Z,55.95
2023-05-21T06:02:01.543Z,55.12
2023-05-21T06:04:30.359Z,53.96
2023-05-21T06:07:00.105Z,53.79
2023-05-21T06:10:08.509Z,53.84
2023-05-21T06:12:45.251Z,53.92
2023-05-21T06:15:15.367Z,52.76
2023-05-21T06:17:43.900Z,52.86
2023-05-21T06:20:53.314Z,52.75
2023-05-21T06:27:18.874Z,51.28
2023-05-21T06:30:27.835Z,50.71
2023-05-21T06:33:36.053Z,50.96
2023-05-21T06:36:44.854Z,50.64
2023-05-21T06:43:49.858Z,49.00
2023-05-21T06:47:16.503Z,49.32
2023-05-21T06:50:25.323Z,48.35
2023-05-21T06:57:06.403Z,48.09
2023-05-21T06:59:34.682Z,47.96
2023-05-21T07:02:04.479Z,47.52
2023-05-21T07:04:35.428Z,46.96
2023-05-21T07:07:10.870Z,46.40
2023-05-21T07:09:39.534Z,46.33
2023-05-21T07:12:48.963Z,47.13
2023-05-21T07:15:57.528Z,46.25
2023-05-21T07:19:06.367Z,46.34
2023-05-21T07:22:14.887Z,45.86
2023-05-21T07:25:23.397Z,45.57
2023-05-21T07:28:31.772Z,44.85
2023-05-21T07:31:45.153Z,44.82
2023-05-21T07:34:54.389Z,43.57
2023-05-21T07:38:03.452Z,43.48
2023-05-21T07:41:12.055Z,43.62
2023-05-21T07:43:40.653Z,42.60
2023-05-21T07:46:09.964Z,42.34
2023-05-21T07:48:38.724Z,43.06
2023-05-21T07:51:47.060Z,43.13
2023-05-21T07:54:56.717Z,42.55
2023-05-21T07:58:05.228Z,42.53
2023-05-21T08:01:14.668Z,42.08
2023-05-21T08:04:01.061Z,41.71
2023-05-21T08:07:09.764Z,41.33
2023-05-21T08:10:19.473Z,41.57
2023-05-21T08:13:28.885Z,41.79
2023-05-21T08:15:57.281Z,42.12
2023-05-21T08:22:23.530Z,42.26
2023-05-21T08:25:32.155Z,40.70
2023-05-21T08:28:01.353Z,40.87
2023-05-21T08:31:09.773Z,40.25
2023-05-21T08:34:18.515Z,40.22
2023-05-21T08:37:35.525Z,39.72
2023-05-21T08:40:12.611Z,40.37
2023-05-21T08:43:25.629Z,39.64
2023-05-21T08:46:01.214Z,39.54
2023-05-21T08:49:12.458Z,39.09
2023-05-21T08:52:21.119Z,39.23
2023-05-21T08:59:01.584Z,38.42
2023-05-21T09:02:12.771Z,37.61
2023-05-21T09:05:21.432Z,37.07
2023-05-21T09:08:13.029Z,37.86
2023-05-21T09:10:59.155Z,36.46
2023-05-21T09:13:33.580Z,36.32
2023-05-21T09:16:44.014Z,36.67
2023-05-21T09:19:52.316Z,36.88
2023-05-21T09:23:00.793Z,36.34
2023-05-21T09:26:09.266Z,36.72
2023-05-21T09:29:17.480Z,36.40
2023-05-21T09:32:26.086Z,35.25
2023-05-21T09:35:36.129Z,35.77
2023-05-21T09:38:09.043Z,35.21
2023-05-21T09:40:44.142Z,35.26
2023-05-21T09:43:16.589Z,36.02
2023-05-21T09:45:52.390Z,35.55
2023-05-21T09:52:50.365Z,34.81
2023-05-21T09:55:58.632Z,34.28
2023-05-21T09:59:06.917Z,34.31
2023-05-21T10:01:35.549Z,34.58
2023-05-21T10:04:07.670Z,34.50
2023-05-21T10:06:38.452Z,33.97
2023-05-21T10:13:01.475Z,33.96
2023-05-21T10:16:09.799Z,34.77
2023-05-21T10:19:18.262Z,34.24
2023-05-21T10:25:59.372Z,33.67
2023-05-21T10:28:28.603Z,33.47
2023-05-21T10:31:36.742Z,32.81
2023-05-21T10:34:44.999Z,33.64
2023-05-21T10:37:53.667Z,33.57
2023-05-21T10:40:22.018Z,34.48
2023-05-21T10:43:09.533Z,33.19
2023-05-21T10:45:38.140Z,32.25
2023-05-21T10:48:19.569Z,32.28
2023-05-21T10:51:03.244Z,32.10
2023-05-21T10:54:18.066Z,33.11
2023-05-21T10:57:26.076Z,33.82
2023-05-21T11:00:34.535Z,33.90
2023-05-21T11:03:42.696Z,32.89
2023-05-21T11:06:12.009Z,32.45
2023-05-21T11:09:20.088Z,32.95
2023-05-21T11:12:31.364Z,33.85
2023-05-21T11:18:35.866Z,34.19
2023-05-21T11:21:04.911Z,34.77
2023-05-21T11:23:48.698Z,33.70
2023-05-21T11:26:24.022Z,32.62
2023-05-21T11:29:04.480Z,32.82
2023-05-21T11:32:12.879Z,32.35
2023-05-21T11:35:23.998Z,32.44
2023-05-21T11:38:32.161Z,33.31
2023-05-21T11:45:01.317Z,33.01
2023-05-21T11:48:09.806Z,32.71
2023-05-21T11:50:38.915Z,32.23
2023-05-21T11:53:09.294Z,33.40
2023-05-21T11:55:43.827Z,33.20
2023-05-21T11:58:19.555Z,32.23
2023-05-21T12:00:51.278Z,31.49
2023-05-21T12:03:59.653Z,30.73
2023-05-21T12:07:07.990Z,30.89
2023-05-21T12:10:19.051Z,32.64
2023-05-21T12:13:27.359Z,33.87
2023-05-21T12:16:35.700Z,35.27
2023-05-21T12:19:44.364Z,35.66
2023-05-21T12:22:52.692Z,36.31
2023-05-21T12:26:00.824Z,37.41
2023-05-21T12:29:09.106Z,37.02
2023-05-21T12:31:50.899Z,36.90
2023-05-21T12:34:39.081Z,37.57
2023-05-21T12:41:19.651Z,37.08
2023-05-21T12:44:27.768Z,36.83
2023-05-21T12:47:36.075Z,36.70
2023-05-21T12:50:05.150Z,37.25
2023-05-21T12:52:33.762Z,36.97
2023-05-21T12:55:02.343Z,36.78
2023-05-21T13:02:08.034Z,37.63
2023-05-21T13:05:16.064Z,37.59
2023-05-21T13:08:24.864Z,38.73
2023-05-21T13:15:04.927Z,38.97
2023-05-21T13:18:13.217Z,39.92
2023-05-21T13:21:21.818Z,40.30
2023-05-21T13:24:35.220Z,40.46
2023-05-21T13:27:21.446Z,40.52
2023-05-21T13:29:50.114Z,40.37
2023-05-21T13:32:19.105Z,40.36
2023-05-21T13:34:48.511Z,40.93
2023-05-21T13:37:16.939Z,40.79
2023-05-21T13:39:45.368Z,41.11
2023-05-21T13:42:14.066Z,40.86
2023-05-21T13:44:42.341Z,41.47
2023-05-21T13:47:12.226Z,41.67
2023-05-21T13:49:40.783Z,41.82
2023-05-21T13:52:48.750Z,41.64
2023-05-21T13:55:57.168Z,42.24
2023-05-21T13:59:05.176Z,42.36
2023-05-21T14:02:13.663Z,42.37
2023-05-21T14:05:21.757Z,42.64
2023-05-21T14:08:30.015Z,40.07
2023-05-21T14:11:38.080Z,37.89
2023-05-21T14:14:52.192Z,37.33
2023-05-21T14:18:00.416Z,37.28
2023-05-21T14:20:28.794Z,37.00
2023-05-21T14:23:37.083Z,36.79
2023-05-21T14:26:45.420Z,36.65
2023-05-21T14:29:53.642Z,37.05
2023-05-21T14:33:01.988Z,36.80
2023-05-21T14:36:10.453Z,37.07
2023-05-21T14:39:18.693Z,38.18
2023-05-21T14:41:53.057Z,39.26
2023-05-21T14:44:29.905Z,39.94
2023-05-21T14:47:08.018Z,40.84
2023-05-21T14:49:44.613Z,41.37
2023-05-21T14:52:25.458Z,41.72
2023-05-21T14:55:05.862Z,42.56
2023-05-21T14:58:21.397Z,43.19
2023-05-21T15:01:29.792Z,44.55
2023-05-21T15:04:38.118Z,45.75
2023-05-21T15:07:06.823Z,46.88
2023-05-21T15:09:35.295Z,47.87
2023-05-21T15:12:03.871Z,48.52
2023-05-21T15:15:12.407Z,48.82
2023-05-21T15:18:20.814Z,50.08
2023-05-21T15:21:29.136Z,50.49
2023-05-21T15:24:37.656Z,51.14
2023-05-21T15:27:46.176Z,51.41
2023-05-21T15:30:31.166Z,52.00
2023-05-21T15:33:39.328Z,51.38
2023-05-21T15:36:47.624Z,50.74
2023-05-21T15:43:13.247Z,50.66
2023-05-21T15:46:21.299Z,50.45
2023-05-21T15:49:29.589Z,50.14
2023-05-21T15:51:58.546Z,50.53
2023-05-21T15:54:27.390Z,51.10
2023-05-21T15:56:56.123Z,51.44
2023-05-21T16:00:04.443Z,51.37
2023-05-21T16:03:22.639Z,52.04
2023-05-21T16:05:51.173Z,52.88
2023-05-21T16:08:59.325Z,53.53
2023-05-21T16:12:07.554Z,54.47
2023-05-21T16:15:15.921Z,54.92
2023-05-21T16:22:22.689Z,56.22
2023-05-21T16:25:31.616Z,56.86
2023-05-21T16:28:00.257Z,56.94
2023-05-21T16:30:29.033Z,57.82
2023-05-21T16:32:57.232Z,57.82
2023-05-21T16:35:25.794Z,58.11
2023-05-21T16:37:54.590Z,58.99
2023-05-21T16:40:59.593Z,59.43
2023-05-21T16:44:07.739Z,60.00
2023-05-21T16:47:16.052Z,60.82
2023-05-21T16:49:44.445Z,61.69
2023-05-21T16:52:13.326Z,62.28
2023-05-21T16:54:44.059Z,62.68
2023-05-21T16:57:14.709Z,62.99
2023-05-21T17:00:22.913Z,62.86
2023-05-21T17:07:28.617Z,63.22
2023-05-21T17:10:36.799Z,63.98
2023-05-21T17:13:45.033Z,64.20
2023-05-21T17:16:18.244Z,64.38
2023-05-21T17:19:26.461Z,64.57
2023-05-21T17:22:34.947Z,64.71
2023-05-21T17:25:43.254Z,64.77
2023-05-21T17:28:51.692Z,65.37
2023-05-21T17:31:59.927Z,65.42
2023-05-21T17:35:08.221Z,65.91
2023-05-21T17:38:16.437Z,65.71
2023-05-21T17:44:56.803Z,66.60
2023-05-21T17:48:04.978Z,67.91
2023-05-21T17:50:34.860Z,67.05
2023-05-21T17:53:43.170Z,68.04
2023-05-21T18:00:24.043Z,68.17
2023-05-21T18:03:32.285Z,68.27
2023-05-21T18:06:40.832Z,68.82
2023-05-21T18:09:49.127Z,68.78
2023-05-21T18:12:57.567Z,69.38
2023-05-21T18:16:05.689Z,69.92
2023-05-21T18:19:14.816Z,70.62
2023-05-21T18:22:22.948Z,71.34
2023-05-21T18:25:31.423Z,71.18
2023-05-21T18:28:00.674Z,71.15
2023-05-21T18:31:09.243Z,71.49
2023-05-21T18:52:38.567Z,73.65
2023-05-21T18:55:46.908Z,73.41
2023-05-21T18:58:55.511Z,73.04
2023-05-21T19:02:08.649Z,74.06
2023-05-21T19:05:17.109Z,73.61
2023-05-21T19:08:25.184Z,73.93
2023-05-21T19:11:33.405Z,73.49
2023-05-21T19:19:02.215Z,74.65
2023-05-21T19:22:10.668Z,74.74
2023-05-21T19:25:19.341Z,75.78
2023-05-21T19:28:32.758Z,75.08
2023-05-21T19:31:40.872Z,75.09
2023-05-21T19:34:49.210Z,75.05
2023-05-21T19:37:17.830Z,75.72
2023-05-21T19:39:49.816Z,76.25
2023-05-21T19:42:19.098Z,76.57
2023-05-21T19:44:47.683Z,76.53
2023-05-21T19:47:55.901Z,76.88
2023-05-21T19:50:24.922Z,76.90
2023-05-21T19:53:33.105Z,77.03
2023-05-21T19:56:39.474Z,76.84
2023-05-21T19:59:47.895Z,76.87
2023-05-21T20:02:56.351Z,77.00
2023-05-21T20:06:04.718Z,77.39
2023-05-21T20:09:13.052Z,77.36
2023-05-21T20:12:21.363Z,77.47
2023-05-21T20:15:29.626Z,78.25
2023-05-21T20:18:37.715Z,78.93
2023-05-21T20:21:46.005Z,78.71
2023-05-21T20:24:54.159Z,79.21
2023-05-21T20:28:02.379Z,78.86
2023-05-21T20:31:13.542Z,79.13
2023-05-21T20:34:22.042Z,79.03
2023-05-21T20:37:30.560Z,78.44
2023-05-21T20:44:11.255Z,76.50
2023-05-21T20:46:40.094Z,75.88
2023-05-21T20:49:09.951Z,75.85
2023-05-21T20:51:38.593Z,75.65
2023-05-21T20:54:07.306Z,75.89
2023-05-21T20:57:15.541Z,75.92
2023-05-21T21:00:23.857Z,76.36
2023-05-21T21:07:29.755Z,76.93
2023-05-21T21:10:38.132Z,76.75
2023-05-21T21:13:46.796Z,77.13
2023-05-21T21:17:00.120Z,77.09
2023-05-21T21:20:08.751Z,77.13
2023-05-21T21:23:16.834Z,77.63
2023-05-21T21:26:25.039Z,77.68
2023-05-21T21:29:33.183Z,77.73
2023-05-21T21:32:41.513Z,77.89
2023-05-21T21:35:49.928Z,77.76
2023-05-21T21:38:58.345Z,78.31
2023-05-21T21:42:06.770Z,78.28
2023-05-21T21:45:15.227Z,78.78
2023-05-21T21:48:03.679Z,79.07
2023-05-21T21:50:32.537Z,79.09
2023-05-21T21:53:01.368Z,79.35
2023-05-21T21:55:30.016Z,79.73
2023-05-21T21:57:58.679Z,79.95
2023-05-21T22:00:27.274Z,80.94
2023-05-21T22:02:55.947Z,81.10
2023-05-21T22:05:24.654Z,81.06
2023-05-21T22:07:53.560Z,80.89
2023-05-21T22:10:21.746Z,81.70
2023-05-21T22:12:50.199Z,81.76
2023-05-21T22:15:20.216Z,81.21
2023-05-21T22:17:50.256Z,81.44
2023-05-21T22:20:18.927Z,82.37
2023-05-21T22:22:47.408Z,82.28
2023-05-21T22:25:15.938Z,82.04
2023-05-21T22:27:44.386Z,82.13
2023-05-21T22:30:13.068Z,82.97
2023-05-21T22:32:41.737Z,83.53
2023-05-21T22:35:10.540Z,84.41
2023-05-21T22:37:39.199Z,83.80
2023-05-21T22:40:07.831Z,84.15
2023-05-21T22:42:36.909Z,83.88
2023-05-21T22:45:05.949Z,84.73
2023-05-21T22:47:37.237Z,85.82
2023-05-21T22:50:06.762Z,86.69
2023-05-21T22:52:35.452Z,86.77
2023-05-21T22:55:04.343Z,87.38
2023-05-21T22:57:32.733Z,87.35
2023-05-21T23:00:01.370Z,87.26
2023-05-21T23:02:29.731Z,86.94
2023-05-21T23:04:58.567Z,88.30
2023-05-21T23:07:27.260Z,87.80
2023-05-21T23:09:55.594Z,87.81
2023-05-21T23:12:24.022Z,87.60
2023-05-21T23:14:52.505Z,88.56
2023-05-21T23:17:20.842Z,88.24
2023-05-21T23:19:52.856Z,88.80
2023-05-21T23:22:21.534Z,89.33
2023-05-21T23:24:51.375Z,88.90
2023-05-21T23:27:19.934Z,89.48
2023-05-21T23:29:48.528Z,90.64
2023-05-21T23:32:16.999Z,91.04
2023-05-21T23:34:45.484Z,90.18
2023-05-21T23:37:14.170Z,90.87
2023-05-21T23:39:43.837Z,90.74
2023-05-21T23:42:12.364Z,90.09
2023-05-21T23:44:40.960Z,90.14
2023-05-21T23:47:09.534Z,90.61
2023-05-21T23:49:38.028Z,90.05
2023-05-21T23:52:06.805Z,89.63
2023-05-21T23:54:35.159Z,89.71
2023-05-21T23:57:03.608Z,89.43
2023-05-21T23:59:32.249Z,89.16
